58OK weather

Jane Phillips Heliport
Bartlesville, Oklahoma, United States

Public forecast

Using degrees Fahrenheit for public forecast. Weather courtesy of forecast.io.

METAR (pilot weather report)

Closest report is Bartlesville Municipal Airport, 4.9 nm (9.0 km) WNW. Retrieved 2019/04/18 22:53 UTC (1 hour ago):

KBVO 182253Z AUTO 36013G27KT 10SM BKN080 18/03 A2983 RMK AO2 PK WND 02027/2226 SLP093 T01830033

TAF (pilot weather forecast)

Closest forecast is Bartlesville Municipal Airport, 4.9 nm (9.0 km) WNW. Retrieved 2019/04/18 18:24 UTC (6 hours ago):

TAF KBVO 181721Z 1818/1918 35011G21KT P6SM FEW050 SCT250 FM190000 35010KT P6SM BKN070 TEMPO 1900/1904 VRB20G30KT -SHRA FM191600 36011G17KT P6SM SKC